sensor_id;sensor_type;location;lat;lon;timestamp;pressure;altitude;pressure_sealevel;temperature;humidity
23427;BME280;41148;45.420;10.952;2023-07-13T00:00:53;100654.31;;;23.55;75.25
23427;BME280;41148;45.420;10.952;2023-07-13T00:03:20;100660.03;;;23.18;76.62
23427;BME280;41148;45.420;10.952;2023-07-13T00:05:57;100617.03;;;23.12;76.81
23427;BME280;41148;45.420;10.952;2023-07-13T00:08:25;100569.72;;;23.03;77.23
23427;BME280;41148;45.420;10.952;2023-07-13T00:10:52;100512.81;;;23.02;77.43
23427;BME280;41148;45.420;10.952;2023-07-13T00:13:28;100495.66;;;23.01;76.60
23427;BME280;41148;45.420;10.952;2023-07-13T00:15:58;100460.91;;;23.05;78.41
23427;BME280;41148;45.420;10.952;2023-07-13T00:18:25;100440.72;;;22.98;78.01
23427;BME280;41148;45.420;10.952;2023-07-13T00:20:53;100414.22;;;23.11;76.34
23427;BME280;41148;45.420;10.952;2023-07-13T00:23:20;100388.19;;;23.08;76.15
23427;BME280;41148;45.420;10.952;2023-07-13T00:25:48;100370.25;;;23.17;75.58
23427;BME280;41148;45.420;10.952;2023-07-13T00:28:18;100357.03;;;23.33;75.11
23427;BME280;41148;45.420;10.952;2023-07-13T00:30:45;100353.66;;;23.41;71.63
23427;BME280;41148;45.420;10.952;2023-07-13T00:33:14;100338.69;;;23.47;70.41
23427;BME280;41148;45.420;10.952;2023-07-13T00:35:45;100341.19;;;23.38;69.37
23427;BME280;41148;45.420;10.952;2023-07-13T00:38:12;100337.28;;;23.31;67.57
23427;BME280;41148;45.420;10.952;2023-07-13T00:40:40;100309.38;;;23.29;65.33
23427;BME280;41148;45.420;10.952;2023-07-13T00:43:20;100305.97;;;23.16;65.46
23427;BME280;41148;45.420;10.952;2023-07-13T00:48:19;100305.41;;;22.92;64.06
23427;BME280;41148;45.420;10.952;2023-07-13T00:50:50;100300.38;;;23.08;63.72
23427;BME280;41148;45.420;10.952;2023-07-13T00:53:19;100322.50;;;23.03;63.37
23427;BME280;41148;45.420;10.952;2023-07-13T00:55:49;100323.75;;;22.99;62.98
23427;BME280;41148;45.420;10.952;2023-07-13T00:58:17;100331.84;;;23.10;63.32
23427;BME280;41148;45.420;10.952;2023-07-13T01:00:47;100322.34;;;23.26;62.85
23427;BME280;41148;45.420;10.952;2023-07-13T01:03:16;100321.94;;;23.51;62.17
23427;BME280;41148;45.420;10.952;2023-07-13T01:05:47;100331.47;;;23.36;64.31
23427;BME280;41148;45.420;10.952;2023-07-13T01:08:15;100334.41;;;23.54;62.16
23427;BME280;41148;45.420;10.952;2023-07-13T01:10:56;100337.25;;;23.52;60.91
23427;BME280;41148;45.420;10.952;2023-07-13T01:13:26;100338.53;;;23.48;62.58
23427;BME280;41148;45.420;10.952;2023-07-13T01:15:55;100357.78;;;23.56;63.43
23427;BME280;41148;45.420;10.952;2023-07-13T01:18:28;100375.81;;;23.57;63.11
23427;BME280;41148;45.420;10.952;2023-07-13T01:20:58;100374.44;;;23.63;63.41
23427;BME280;41148;45.420;10.952;2023-07-13T01:23:28;100373.69;;;23.40;64.13
23427;BME280;41148;45.420;10.952;2023-07-13T01:25:56;100373.59;;;23.51;64.20
23427;BME280;41148;45.420;10.952;2023-07-13T01:28:26;100380.91;;;23.51;63.84
23427;BME280;41148;45.420;10.952;2023-07-13T01:30:56;100395.00;;;23.24;65.00
23427;BME280;41148;45.420;10.952;2023-07-13T01:33:24;100401.38;;;23.13;65.40
23427;BME280;41148;45.420;10.952;2023-07-13T01:35:52;100402.38;;;23.12;65.16
23427;BME280;41148;45.420;10.952;2023-07-13T01:38:22;100405.13;;;23.01;65.63
23427;BME280;41148;45.420;10.952;2023-07-13T01:40:51;100406.22;;;23.09;64.75
23427;BME280;41148;45.420;10.952;2023-07-13T01:43:19;100403.44;;;23.21;64.39
23427;BME280;41148;45.420;10.952;2023-07-13T01:45:46;100404.78;;;23.26;64.68
23427;BME280;41148;45.420;10.952;2023-07-13T01:48:14;100403.53;;;22.98;65.27
23427;BME280;41148;45.420;10.952;2023-07-13T01:50:42;100403.63;;;23.08;65.91
23427;BME280;41148;45.420;10.952;2023-07-13T01:53:09;100397.75;;;22.92;66.67
23427;BME280;41148;45.420;10.952;2023-07-13T01:55:37;100407.88;;;22.90;68.31
23427;BME280;41148;45.420;10.952;2023-07-13T01:58:05;100402.63;;;23.09;67.79
23427;BME280;41148;45.420;10.952;2023-07-13T02:00:33;100400.09;;;22.85;68.70
23427;BME280;41148;45.420;10.952;2023-07-13T02:03:02;100418.63;;;22.80;69.84
23427;BME280;41148;45.420;10.952;2023-07-13T02:05:32;100429.72;;;22.77;71.27
23427;BME280;41148;45.420;10.952;2023-07-13T02:07:59;100420.94;;;22.96;71.49
23427;BME280;41148;45.420;10.952;2023-07-13T02:10:27;100414.06;;;22.80;73.57
23427;BME280;41148;45.420;10.952;2023-07-13T02:12:56;100419.63;;;22.68;75.04
23427;BME280;41148;45.420;10.952;2023-07-13T02:15:24;100429.16;;;22.62;76.09
23427;BME280;41148;45.420;10.952;2023-07-13T02:17:51;100411.75;;;22.65;76.34
23427;BME280;41148;45.420;10.952;2023-07-13T02:20:19;100403.13;;;22.60;76.19
23427;BME280;41148;45.420;10.952;2023-07-13T02:22:47;100411.13;;;22.72;75.99
23427;BME280;41148;45.420;10.952;2023-07-13T02:25:14;100411.06;;;22.83;75.79
23427;BME280;41148;45.420;10.952;2023-07-13T02:27:42;100430.28;;;22.60;77.36
23427;BME280;41148;45.420;10.952;2023-07-13T02:30:11;100418.66;;;22.69;77.50
23427;BME280;41148;45.420;10.952;2023-07-13T02:32:38;100422.44;;;22.77;76.87
23427;BME280;41148;45.420;10.952;2023-07-13T02:35:06;100425.97;;;22.46;78.00
23427;BME280;41148;45.420;10.952;2023-07-13T02:37:33;100417.19;;;22.53;78.06
23427;BME280;41148;45.420;10.952;2023-07-13T02:40:02;100422.34;;;22.68;77.06
23427;BME280;41148;45.420;10.952;2023-07-13T02:42:35;100441.44;;;22.77;76.65
23427;BME280;41148;45.420;10.952;2023-07-13T02:45:07;100431.72;;;22.75;76.82
23427;BME280;41148;45.420;10.952;2023-07-13T02:47:35;100430.72;;;22.87;76.17
23427;BME280;41148;45.420;10.952;2023-07-13T02:50:03;100431.09;;;22.82;76.32
23427;BME280;41148;45.420;10.952;2023-07-13T02:52:31;100442.34;;;22.78;76.95
23427;BME280;41148;45.420;10.952;2023-07-13T02:54:59;100436.44;;;22.62;76.89
23427;BME280;41148;45.420;10.952;2023-07-13T02:57:26;100432.84;;;22.72;76.67
23427;BME280;41148;45.420;10.952;2023-07-13T02:59:55;100444.81;;;22.70;76.19
23427;BME280;41148;45.420;10.952;2023-07-13T03:02:23;100452.47;;;22.65;76.47
23427;BME280;41148;45.420;10.952;2023-07-13T03:04:50;100452.00;;;22.60;76.70
23427;BME280;41148;45.420;10.952;2023-07-13T03:07:18;100448.44;;;22.59;76.30
23427;BME280;41148;45.420;10.952;2023-07-13T03:09:47;100445.38;;;22.30;77.64
23427;BME280;41148;45.420;10.952;2023-07-13T03:12:15;100454.47;;;22.29;77.96
23427;BME280;41148;45.420;10.952;2023-07-13T03:14:43;100459.16;;;22.27;78.37
23427;BME280;41148;45.420;10.952;2023-07-13T03:17:11;100471.88;;;22.26;78.57
23427;BME280;41148;45.420;10.952;2023-07-13T03:19:41;100477.53;;;22.46;77.79
23427;BME280;41148;45.420;10.952;2023-07-13T03:22:08;100481.72;;;22.39;78.33
23427;BME280;41148;45.420;10.952;2023-07-13T03:24:38;100474.69;;;22.47;78.47
23427;BME280;41148;45.420;10.952;2023-07-13T03:27:07;100482.22;;;22.55;77.94
23427;BME280;41148;45.420;10.952;2023-07-13T03:29:38;100490.63;;;22.41;78.73
23427;BME280;41148;45.420;10.952;2023-07-13T03:32:06;100491.59;;;22.62;77.99
23427;BME280;41148;45.420;10.952;2023-07-13T03:34:34;100500.47;;;22.64;77.96
23427;BME280;41148;45.420;10.952;2023-07-13T03:37:02;100508.63;;;22.53;77.89
23427;BME280;41148;45.420;10.952;2023-07-13T03:39:29;100506.91;;;22.41;78.85
23427;BME280;41148;45.420;10.952;2023-07-13T03:41:58;100512.34;;;22.30;78.99
23427;BME280;41148;45.420;10.952;2023-07-13T03:44:27;100517.13;;;22.37;78.81
23427;BME280;41148;45.420;10.952;2023-07-13T03:46:56;100510.50;;;22.41;78.81
23427;BME280;41148;45.420;10.952;2023-07-13T03:49:24;100515.44;;;22.59;77.90
23427;BME280;41148;45.420;10.952;2023-07-13T03:51:51;100508.63;;;22.75;76.64
23427;BME280;41148;45.420;10.952;2023-07-13T03:54:20;100504.91;;;22.65;76.31
23427;BME280;41148;45.420;10.952;2023-07-13T03:56:48;100512.47;;;22.50;76.32
23427;BME280;41148;45.420;10.952;2023-07-13T03:59:17;100514.69;;;22.45;77.26
23427;BME280;41148;45.420;10.952;2023-07-13T04:01:45;100518.28;;;22.68;76.39
23427;BME280;41148;45.420;10.952;2023-07-13T04:04:13;100518.28;;;22.91;74.46
23427;BME280;41148;45.420;10.952;2023-07-13T04:06:41;100526.78;;;22.64;75.42
23427;BME280;41148;45.420;10.952;2023-07-13T04:09:11;100519.63;;;22.51;75.55
23427;BME280;41148;45.420;10.952;2023-07-13T04:11:39;100520.75;;;22.49;76.00
23427;BME280;41148;45.420;10.952;2023-07-13T04:14:06;100513.59;;;22.59;76.27
23427;BME280;41148;45.420;10.952;2023-07-13T04:16:34;100522.81;;;22.56;76.86
23427;BME280;41148;45.420;10.952;2023-07-13T04:19:02;100511.34;;;22.64;77.03
23427;BME280;41148;45.420;10.952;2023-07-13T04:21:30;100507.16;;;22.71;76.86
23427;BME280;41148;45.420;10.952;2023-07-13T04:23:58;100514.81;;;22.89;76.10
23427;BME280;41148;45.420;10.952;2023-07-13T04:26:26;100518.53;;;22.88;76.63
23427;BME280;41148;45.420;10.952;2023-07-13T04:28:54;100518.13;;;22.81;76.78
23427;BME280;41148;45.420;10.952;2023-07-13T04:31:22;100512.94;;;22.67;77.83
23427;BME280;41148;45.420;10.952;2023-07-13T04:33:49;100520.72;;;22.82;77.37
23427;BME280;41148;45.420;10.952;2023-07-13T04:36:18;100522.69;;;23.03;76.67
23427;BME280;41148;45.420;10.952;2023-07-13T04:38:45;100525.13;;;23.17;74.88
23427;BME280;41148;45.420;10.952;2023-07-13T04:41:14;100530.44;;;23.19;76.08
23427;BME280;41148;45.420;10.952;2023-07-13T04:43:42;100522.81;;;23.01;76.54
23427;BME280;41148;45.420;10.952;2023-07-13T04:46:13;100529.25;;;23.00;77.18
23427;BME280;41148;45.420;10.952;2023-07-13T04:48:41;100537.44;;;23.32;73.84
23427;BME280;41148;45.420;10.952;2023-07-13T04:51:10;100536.56;;;23.32;74.17
23427;BME280;41148;45.420;10.952;2023-07-13T04:53:37;100547.91;;;23.48;71.12
23427;BME280;41148;45.420;10.952;2023-07-13T04:56:05;100549.59;;;23.60;68.06
23427;BME280;41148;45.420;10.952;2023-07-13T04:58:33;100543.66;;;23.66;67.62
23427;BME280;41148;45.420;10.952;2023-07-13T05:01:03;100536.22;;;23.68;67.27
23427;BME280;41148;45.420;10.952;2023-07-13T05:03:31;100538.66;;;23.72;68.20
23427;BME280;41148;45.420;10.952;2023-07-13T05:06:07;100552.53;;;23.68;66.66
23427;BME280;41148;45.420;10.952;2023-07-13T05:08:37;100572.66;;;23.77;66.98
23427;BME280;41148;45.420;10.952;2023-07-13T05:11:05;100556.72;;;23.73;67.89
23427;BME280;41148;45.420;10.952;2023-07-13T05:13:34;100550.16;;;23.75;66.56
23427;BME280;41148;45.420;10.952;2023-07-13T05:16:04;100550.63;;;23.80;67.60
23427;BME280;41148;45.420;10.952;2023-07-13T05:18:31;100541.06;;;23.65;68.04
23427;BME280;41148;45.420;10.952;2023-07-13T05:21:02;100544.16;;;23.60;68.80
23427;BME280;41148;45.420;10.952;2023-07-13T05:23:31;100542.81;;;23.55;70.30
23427;BME280;41148;45.420;10.952;2023-07-13T05:25:59;100545.16;;;23.59;70.59
23427;BME280;41148;45.420;10.952;2023-07-13T05:28:27;100545.31;;;23.47;71.49
23427;BME280;41148;45.420;10.952;2023-07-13T05:30:57;100540.34;;;23.52;71.98
23427;BME280;41148;45.420;10.952;2023-07-13T05:33:25;100550.88;;;23.45;73.44
23427;BME280;41148;45.420;10.952;2023-07-13T05:35:53;100550.97;;;23.55;72.39
23427;BME280;41148;45.420;10.952;2023-07-13T05:38:21;100549.22;;;23.65;70.81
23427;BME280;41148;45.420;10.952;2023-07-13T05:40:49;100555.84;;;23.72;69.57
23427;BME280;41148;45.420;10.952;2023-07-13T05:43:17;100564.50;;;23.77;68.02
23427;BME280;41148;45.420;10.952;2023-07-13T05:45:45;100550.41;;;23.72;68.25
23427;BME280;41148;45.420;10.952;2023-07-13T05:48:12;100555.63;;;23.75;68.84
23427;BME280;41148;45.420;10.952;2023-07-13T05:50:40;100562.44;;;23.90;68.36
23427;BME280;41148;45.420;10.952;2023-07-13T05:53:08;100562.72;;;23.87;67.98
23427;BME280;41148;45.420;10.952;2023-07-13T05:55:35;100552.56;;;23.89;67.99
23427;BME280;41148;45.420;10.952;2023-07-13T05:58:03;100546.19;;;23.79;68.70
23427;BME280;41148;45.420;10.952;2023-07-13T06:00:30;100537.28;;;23.77;68.53
23427;BME280;41148;45.420;10.952;2023-07-13T06:02:58;100528.94;;;23.69;68.95
23427;BME280;41148;45.420;10.952;2023-07-13T06:05:26;100529.88;;;23.79;68.39
23427;BME280;41148;45.420;10.952;2023-07-13T06:07:56;100543.59;;;23.98;67.01
23427;BME280;41148;45.420;10.952;2023-07-13T06:10:23;100541.47;;;24.02;66.83
23427;BME280;41148;45.420;10.952;2023-07-13T06:12:51;100558.94;;;23.99;67.27
23427;BME280;41148;45.420;10.952;2023-07-13T06:15:18;100553.56;;;23.88;67.19
23427;BME280;41148;45.420;10.952;2023-07-13T06:17:46;100571.94;;;23.75;67.43
23427;BME280;41148;45.420;10.952;2023-07-13T06:20:14;100570.38;;;23.61;68.00
23427;BME280;41148;45.420;10.952;2023-07-13T06:22:44;100560.44;;;23.72;67.84
23427;BME280;41148;45.420;10.952;2023-07-13T06:25:12;100549.38;;;23.84;67.06
23427;BME280;41148;45.420;10.952;2023-07-13T06:27:39;100538.75;;;23.81;67.63
23427;BME280;41148;45.420;10.952;2023-07-13T06:30:07;100530.00;;;23.78;67.64
23427;BME280;41148;45.420;10.952;2023-07-13T06:32:35;100535.81;;;23.73;67.92
23427;BME280;41148;45.420;10.952;2023-07-13T06:35:07;100545.53;;;23.87;67.14
23427;BME280;41148;45.420;10.952;2023-07-13T06:37:35;100537.09;;;23.90;67.44
23427;BME280;41148;45.420;10.952;2023-07-13T06:40:03;100528.34;;;23.86;67.62
23427;BME280;41148;45.420;10.952;2023-07-13T06:42:31;100519.91;;;23.89;67.87
23427;BME280;41148;45.420;10.952;2023-07-13T06:44:58;100520.56;;;23.82;68.57
23427;BME280;41148;45.420;10.952;2023-07-13T06:47:26;100538.38;;;23.86;68.07
23427;BME280;41148;45.420;10.952;2023-07-13T06:49:54;100538.97;;;23.89;66.65
23427;BME280;41148;45.420;10.952;2023-07-13T06:52:21;100556.88;;;23.92;66.64
23427;BME280;41148;45.420;10.952;2023-07-13T06:54:49;100569.22;;;23.96;66.63
23427;BME280;41148;45.420;10.952;2023-07-13T06:57:16;100577.78;;;24.12;66.08
23427;BME280;41148;45.420;10.952;2023-07-13T06:59:44;100572.63;;;24.09;65.96
23427;BME280;41148;45.420;10.952;2023-07-13T07:02:11;100578.47;;;24.05;65.99
23427;BME280;41148;45.420;10.952;2023-07-13T07:04:39;100569.38;;;23.94;67.14
23427;BME280;41148;45.420;10.952;2023-07-13T07:07:06;100569.59;;;23.91;67.34
23427;BME280;41148;45.420;10.952;2023-07-13T07:09:34;100583.06;;;23.93;67.37
23427;BME280;41148;45.420;10.952;2023-07-13T07:12:02;100584.06;;;23.92;67.02
23427;BME280;41148;45.420;10.952;2023-07-13T07:14:31;100589.19;;;23.85;67.50
23427;BME280;41148;45.420;10.952;2023-07-13T07:16:58;100587.25;;;23.76;67.70
23427;BME280;41148;45.420;10.952;2023-07-13T07:19:30;100577.69;;;23.82;67.03
23427;BME280;41148;45.420;10.952;2023-07-13T07:21:57;100581.91;;;23.86;66.65
23427;BME280;41148;45.420;10.952;2023-07-13T07:24:25;100563.06;;;23.94;66.79
23427;BME280;41148;45.420;10.952;2023-07-13T07:26:53;100563.59;;;24.09;66.46
23427;BME280;41148;45.420;10.952;2023-07-13T07:29:23;100564.50;;;24.19;66.58
23427;BME280;41148;45.420;10.952;2023-07-13T07:35:02;100576.47;;;24.27;66.16
23427;BME280;41148;45.420;10.952;2023-07-13T07:37:30;100584.34;;;24.31;65.00
23427;BME280;41148;45.420;10.952;2023-07-13T07:40:00;100577.41;;;24.38;64.58
23427;BME280;41148;45.420;10.952;2023-07-13T07:42:31;100586.91;;;24.43;64.56
23427;BME280;41148;45.420;10.952;2023-07-13T07:44:58;100592.16;;;24.35;64.66
23427;BME280;41148;45.420;10.952;2023-07-13T07:47:26;100600.06;;;24.38;64.54
23427;BME280;41148;45.420;10.952;2023-07-13T07:49:54;100599.13;;;24.49;63.82
23427;BME280;41148;45.420;10.952;2023-07-13T07:52:21;100583.34;;;24.43;64.13
23427;BME280;41148;45.420;10.952;2023-07-13T07:54:49;100593.53;;;24.30;63.98
23427;BME280;41148;45.420;10.952;2023-07-13T07:57:19;100589.06;;;24.28;64.26
23427;BME280;41148;45.420;10.952;2023-07-13T08:00:07;100592.53;;;24.31;64.01
23427;BME280;41148;45.420;10.952;2023-07-13T08:02:44;100596.19;;;24.41;64.28
23427;BME280;41148;45.420;10.952;2023-07-13T08:05:14;100600.41;;;24.45;64.22
23427;BME280;41148;45.420;10.952;2023-07-13T08:07:45;100606.44;;;24.48;64.32
23427;BME280;41148;45.420;10.952;2023-07-13T08:10:12;100604.84;;;24.46;64.10
23427;BME280;41148;45.420;10.952;2023-07-13T08:12:40;100586.16;;;24.41;64.25
23427;BME280;41148;45.420;10.952;2023-07-13T08:15:13;100565.38;;;24.40;64.17
23427;BME280;41148;45.420;10.952;2023-07-13T08:17:41;100562.81;;;24.39;64.35
23427;BME280;41148;45.420;10.952;2023-07-13T08:20:09;100553.25;;;24.44;64.24
23427;BME280;41148;45.420;10.952;2023-07-13T08:22:37;100554.28;;;24.53;64.18
23427;BME280;41148;45.420;10.952;2023-07-13T08:25:05;100549.72;;;24.53;64.67
23427;BME280;41148;45.420;10.952;2023-07-13T08:27:32;100545.66;;;24.48;65.41
23427;BME280;41148;45.420;10.952;2023-07-13T08:30:00;100530.50;;;24.55;65.63
23427;BME280;41148;45.420;10.952;2023-07-13T08:32:28;100547.28;;;24.60;65.76
23427;BME280;41148;45.420;10.952;2023-07-13T08:34:56;100549.09;;;24.71;65.51
23427;BME280;41148;45.420;10.952;2023-07-13T08:37:23;100544.31;;;24.63;65.76
23427;BME280;41148;45.420;10.952;2023-07-13T08:39:51;100535.81;;;24.57;65.92
23427;BME280;41148;45.420;10.952;2023-07-13T08:45:18;100544.66;;;24.49;67.20
23427;BME280;41148;45.420;10.952;2023-07-13T08:47:56;100580.06;;;24.49;67.13
23427;BME280;41148;45.420;10.952;2023-07-13T08:50:31;100578.06;;;24.51;67.80
23427;BME280;41148;45.420;10.952;2023-07-13T08:53:21;100580.78;;;24.51;68.15
23427;BME280;41148;45.420;10.952;2023-07-13T08:55:53;100571.88;;;24.49;68.62
23427;BME280;41148;45.420;10.952;2023-07-13T08:58:25;100579.00;;;24.61;67.91
23427;BME280;41148;45.420;10.952;2023-07-13T09:01:02;100589.75;;;24.63;67.83
23427;BME280;41148;45.420;10.952;2023-07-13T09:03:40;100597.38;;;24.69;67.29
23427;BME280;41148;45.420;10.952;2023-07-13T09:06:11;100605.47;;;24.59;67.01
23427;BME280;41148;45.420;10.952;2023-07-13T09:08:54;100597.88;;;24.53;67.86
23427;BME280;41148;45.420;10.952;2023-07-13T09:11:40;100588.09;;;24.50;67.83
23427;BME280;41148;45.420;10.952;2023-07-13T09:16:50;100571.13;;;24.37;68.12
23427;BME280;41148;45.420;10.952;2023-07-13T09:19:24;100562.66;;;24.40;68.96
23427;BME280;41148;45.420;10.952;2023-07-13T09:21:54;100574.22;;;24.53;69.07
23427;BME280;41148;45.420;10.952;2023-07-13T09:27:17;100563.75;;;24.59;68.65
23427;BME280;41148;45.420;10.952;2023-07-13T09:32:48;100575.31;;;24.72;68.46
23427;BME280;41148;45.420;10.952;2023-07-13T09:35:24;100579.16;;;24.69;68.76
23427;BME280;41148;45.420;10.952;2023-07-13T09:38:03;100572.81;;;24.59;68.58
23427;BME280;41148;45.420;10.952;2023-07-13T09:40:58;100571.94;;;24.59;68.94
23427;BME280;41148;45.420;10.952;2023-07-13T09:43:27;100562.81;;;24.69;68.23
23427;BME280;41148;45.420;10.952;2023-07-13T09:45:57;100564.31;;;24.83;67.88
23427;BME280;41148;45.420;10.952;2023-07-13T09:48:24;100570.53;;;24.95;66.52
23427;BME280;41148;45.420;10.952;2023-07-13T09:50:55;100574.31;;;25.03;66.92
23427;BME280;41148;45.420;10.952;2023-07-13T09:53:30;100576.66;;;25.27;66.32
23427;BME280;41148;45.420;10.952;2023-07-13T09:55:58;100579.88;;;25.42;64.55
23427;BME280;41148;45.420;10.952;2023-07-13T09:58:31;100587.38;;;25.69;63.64
23427;BME280;41148;45.420;10.952;2023-07-13T10:01:03;100587.66;;;26.05;62.81
23427;BME280;41148;45.420;10.952;2023-07-13T10:03:36;100587.22;;;26.29;61.61
23427;BME280;41148;45.420;10.952;2023-07-13T10:06:17;100577.69;;;26.52;60.69
23427;BME280;41148;45.420;10.952;2023-07-13T10:08:46;100568.31;;;26.74;60.09
23427;BME280;41148;45.420;10.952;2023-07-13T10:11:27;100567.09;;;26.86;59.65
23427;BME280;41148;45.420;10.952;2023-07-13T10:14:01;100564.28;;;27.05;55.99
23427;BME280;41148;45.420;10.952;2023-07-13T10:16:31;100568.28;;;27.01;55.35
23427;BME280;41148;45.420;10.952;2023-07-13T10:19:12;100562.25;;;27.07;56.22
23427;BME280;41148;45.420;10.952;2023-07-13T10:21:59;100584.13;;;27.35;56.34
23427;BME280;41148;45.420;10.952;2023-07-13T10:24:31;100589.91;;;27.50;55.74
23427;BME280;41148;45.420;10.952;2023-07-13T10:27:05;100601.81;;;27.58;54.24
23427;BME280;41148;45.420;10.952;2023-07-13T10:30:02;100592.66;;;27.50;55.09
23427;BME280;41148;45.420;10.952;2023-07-13T10:32:26;100579.53;;;27.53;55.13
23427;BME280;41148;45.420;10.952;2023-07-13T10:34:54;100578.91;;;27.59;55.42
23427;BME280;41148;45.420;10.952;2023-07-13T10:37:27;100582.91;;;27.65;55.86
23427;BME280;41148;45.420;10.952;2023-07-13T10:39:56;100587.41;;;27.66;55.62
23427;BME280;41148;45.420;10.952;2023-07-13T10:42:33;100596.88;;;27.72;55.87
23427;BME280;41148;45.420;10.952;2023-07-13T10:45:10;100578.41;;;27.91;55.16
23427;BME280;41148;45.420;10.952;2023-07-13T10:47:39;100576.22;;;27.95;54.25
23427;BME280;41148;45.420;10.952;2023-07-13T10:50:15;100579.25;;;28.10;52.61
23427;BME280;41148;45.420;10.952;2023-07-13T10:52:49;100588.03;;;27.95;54.05
23427;BME280;41148;45.420;10.952;2023-07-13T10:55:40;100583.19;;;27.89;54.08
23427;BME280;41148;45.420;10.952;2023-07-13T10:58:33;100573.09;;;27.90;53.63
23427;BME280;41148;45.420;10.952;2023-07-13T11:01:10;100577.94;;;27.96;54.05
23427;BME280;41148;45.420;10.952;2023-07-13T11:03:56;100577.84;;;28.06;52.42
23427;BME280;41148;45.420;10.952;2023-07-13T11:08:58;100548.75;;;28.05;53.64
23427;BME280;41148;45.420;10.952;2023-07-13T11:14:03;100539.16;;;27.83;53.76
23427;BME280;41148;45.420;10.952;2023-07-13T11:16:50;100539.56;;;27.70;54.30
23427;BME280;41148;45.420;10.952;2023-07-13T11:25:00;100534.22;;;27.69;55.02
23427;BME280;41148;45.420;10.952;2023-07-13T11:28:04;100531.78;;;27.83;55.14
23427;BME280;41148;45.420;10.952;2023-07-13T11:30:34;100525.38;;;27.92;54.91
23427;BME280;41148;45.420;10.952;2023-07-13T11:35:37;100521.94;;;28.16;54.13
23427;BME280;41148;45.420;10.952;2023-07-13T11:38:14;100514.66;;;28.25;53.25
23427;BME280;41148;45.420;10.952;2023-07-13T11:40:45;100515.41;;;28.09;54.01
23427;BME280;41148;45.420;10.952;2023-07-13T11:43:22;100516.63;;;28.15;54.11
23427;BME280;41148;45.420;10.952;2023-07-13T11:45:53;100514.91;;;28.14;54.38
23427;BME280;41148;45.420;10.952;2023-07-13T11:48:27;100505.75;;;28.23;54.86
23427;BME280;41148;45.420;10.952;2023-07-13T11:50:58;100506.50;;;28.33;54.20
23427;BME280;41148;45.420;10.952;2023-07-13T11:53:28;100506.41;;;28.43;53.32
23427;BME280;41148;45.420;10.952;2023-07-13T11:55:57;100505.44;;;28.52;53.89
23427;BME280;41148;45.420;10.952;2023-07-13T11:58:26;100502.53;;;28.54;52.92
23427;BME280;41148;45.420;10.952;2023-07-13T12:00:58;100504.91;;;28.57;53.46
23427;BME280;41148;45.420;10.952;2023-07-13T12:03:26;100499.34;;;28.66;53.17
23427;BME280;41148;45.420;10.952;2023-07-13T12:06:03;100499.19;;;28.68;53.26
23427;BME280;41148;45.420;10.952;2023-07-13T12:08:39;100489.88;;;28.61;53.17
23427;BME280;41148;45.420;10.952;2023-07-13T12:11:18;100478.41;;;28.65;52.72
23427;BME280;41148;45.420;10.952;2023-07-13T12:13:46;100483.28;;;28.79;51.85
23427;BME280;41148;45.420;10.952;2023-07-13T12:16:21;100488.44;;;28.83;51.69
23427;BME280;41148;45.420;10.952;2023-07-13T12:18:52;100485.22;;;28.87;51.96
23427;BME280;41148;45.420;10.952;2023-07-13T12:21:26;100489.84;;;28.87;52.61
23427;BME280;41148;45.420;10.952;2023-07-13T12:23:57;100479.06;;;28.93;52.04
23427;BME280;41148;45.420;10.952;2023-07-13T12:26:24;100471.94;;;28.74;52.17
23427;BME280;41148;45.420;10.952;2023-07-13T12:28:54;100470.41;;;28.72;51.75
23427;BME280;41148;45.420;10.952;2023-07-13T12:34:00;100466.59;;;28.99;51.97
23427;BME280;41148;45.420;10.952;2023-07-13T12:36:33;100467.44;;;28.99;51.98
23427;BME280;41148;45.420;10.952;2023-07-13T12:39:13;100466.75;;;28.97;52.17
23427;BME280;41148;45.420;10.952;2023-07-13T12:41:42;100476.00;;;29.04;52.42
23427;BME280;41148;45.420;10.952;2023-07-13T12:44:13;100472.63;;;29.19;51.67
23427;BME280;41148;45.420;10.952;2023-07-13T12:47:03;100474.34;;;29.20;51.10
23427;BME280;41148;45.420;10.952;2023-07-13T12:49:33;100460.63;;;29.20;51.37
23427;BME280;41148;45.420;10.952;2023-07-13T12:52:16;100447.09;;;29.18;51.17
23427;BME280;41148;45.420;10.952;2023-07-13T12:55:03;100448.28;;;29.16;51.38
23427;BME280;41148;45.420;10.952;2023-07-13T12:57:38;100449.16;;;29.16;51.40
23427;BME280;41148;45.420;10.952;2023-07-13T13:00:32;100447.94;;;29.19;51.50
23427;BME280;41148;45.420;10.952;2023-07-13T13:03:13;100446.41;;;29.32;50.23
23427;BME280;41148;45.420;10.952;2023-07-13T13:06:00;100452.59;;;29.34;50.54
23427;BME280;41148;45.420;10.952;2023-07-13T13:08:35;100450.53;;;29.28;50.45
23427;BME280;41148;45.420;10.952;2023-07-13T13:11:03;100438.88;;;29.34;48.74
23427;BME280;41148;45.420;10.952;2023-07-13T13:13:30;100449.34;;;29.39;50.02
23427;BME280;41148;45.420;10.952;2023-07-13T13:16:04;100445.78;;;29.55;49.38
23427;BME280;41148;45.420;10.952;2023-07-13T13:18:33;100442.69;;;29.50;49.64
23427;BME280;41148;45.420;10.952;2023-07-13T13:21:04;100453.44;;;29.43;49.09
23427;BME280;41148;45.420;10.952;2023-07-13T13:23:41;100447.63;;;29.38;48.67
23427;BME280;41148;45.420;10.952;2023-07-13T13:26:14;100437.50;;;29.39;49.32
23427;BME280;41148;45.420;10.952;2023-07-13T13:28:44;100446.41;;;29.41;49.05
23427;BME280;41148;45.420;10.952;2023-07-13T13:31:13;100450.19;;;29.48;48.38